Time;durP1;ratioP1;P1;durP2;ratioP2;P2;SDS_P1;SDS_P2;PMS_P1;PMS_P2;Temp;Humidity;BMP_temperature;BMP_pressure;BME280_temperature;BME280_humidity;BME280_pressure;Samples;Min_cycle;Max_cycle;Signal;HPM_P1;HPM_P2
2023/03/27 00:00:40;;;;;;;13.88;2.78;;;;;;;4.20;100.00;101537.13;5206557;28;20037;-80
2023/03/27 00:03:12;;;;;;;12.90;1.67;;;;;;;4.20;100.00;101537.13;5206733;28;20029;-80
2023/03/27 00:05:44;;;;;;;15.13;1.95;;;;;;;4.19;100.00;101552.22;5206520;28;20075;-80
2023/03/27 00:08:15;;;;;;;14.55;2.30;;;;;;;4.19;100.00;101557.50;5205670;28;20033;-81
2023/03/27 00:10:47;;;;;;;9.80;2.58;;;;;;;4.20;100.00;101563.69;5206444;28;20056;-80
2023/03/27 00:13:17;;;;;;;23.52;4.18;;;;;;;4.21;100.00;101582.16;5202407;28;20139;-81
2023/03/27 00:15:50;;;;;;;13.68;2.03;;;;;;;4.21;100.00;101576.84;5206358;28;20021;-80
2023/03/27 00:18:20;;;;;;;19.70;2.38;;;;;;;4.22;100.00;101588.31;5206225;28;20555;-80
2023/03/27 00:20:51;;;;;;;13.75;1.63;;;;;;;4.16;100.00;101582.47;5205832;28;20029;-80
2023/03/27 00:23:21;;;;;;;20.25;2.13;;;;;;;4.18;100.00;101585.03;5206252;28;20136;-80
2023/03/27 00:25:53;;;;;;;8.65;2.03;;;;;;;4.21;100.00;101589.28;5197123;28;20128;-80
2023/03/27 00:28:27;;;;;;;11.25;1.90;;;;;;;4.20;100.00;101588.44;5206166;28;20395;-80
2023/03/27 00:30:57;;;;;;;15.65;2.28;;;;;;;4.23;100.00;101598.00;5206543;28;20029;-80
2023/03/27 00:33:28;;;;;;;8.52;1.77;;;;;;;4.18;100.00;101594.81;5206237;28;20040;-80
2023/03/27 00:35:58;;;;;;;12.65;1.98;;;;;;;4.16;100.00;101593.09;5207239;28;20555;-81
2023/03/27 00:38:30;;;;;;;15.85;2.03;;;;;;;4.19;100.00;101596.50;5206506;28;20108;-81
2023/03/27 00:41:01;;;;;;;9.18;2.25;;;;;;;4.22;100.00;101605.13;5206994;28;20388;-80
2023/03/27 00:43:33;;;;;;;12.45;1.75;;;;;;;4.23;100.00;101608.63;5206795;28;20085;-80
2023/03/27 00:46:04;;;;;;;7.30;1.75;;;;;;;4.22;100.00;101605.13;5206857;28;20029;-81
2023/03/27 00:48:36;;;;;;;11.40;2.00;;;;;;;4.19;100.00;101613.28;5206703;28;20052;-80
2023/03/27 00:51:07;;;;;;;17.10;2.50;;;;;;;4.19;100.00;101615.09;5207296;28;20417;-79
2023/03/27 00:53:38;;;;;;;10.32;2.13;;;;;;;4.16;100.00;101613.50;5207482;28;20629;-80
2023/03/27 00:56:10;;;;;;;11.50;2.95;;;;;;;4.09;100.00;101601.59;5206499;28;20022;-80
2023/03/27 00:58:59;;;;;;;14.70;1.67;;;;;;;4.09;100.00;101612.22;5206464;28;20525;-80
2023/03/27 01:01:30;;;;;;;12.55;2.10;;;;;;;4.12;100.00;101614.69;5206614;28;20084;-80
2023/03/27 01:04:05;;;;;;;14.88;2.47;;;;;;;4.06;100.00;101625.69;5207610;28;20051;-80
2023/03/27 01:06:35;;;;;;;7.90;1.65;;;;;;;4.14;100.00;101620.72;5206467;28;20034;-80
2023/03/27 01:09:08;;;;;;;14.57;1.88;;;;;;;4.10;100.00;101622.72;5207103;28;20075;-80
2023/03/27 01:12:05;;;;;;;11.25;1.95;;;;;;;4.13;100.00;101640.28;5206247;28;20026;-80
2023/03/27 01:15:15;;;;;;;9.23;1.50;;;;;;;4.12;100.00;101650.06;5193208;28;20051;-80
2023/03/27 01:18:12;;;;;;;5.95;1.80;;;;;;;4.09;100.00;101652.06;5206074;28;20139;-80
2023/03/27 01:21:16;;;;;;;13.98;2.05;;;;;;;3.99;100.00;101653.63;5201202;28;20032;-81
2023/03/27 01:24:07;;;;;;;12.43;1.92;;;;;;;3.99;100.00;101656.28;5202431;28;20466;-81
2023/03/27 01:27:17;;;;;;;16.60;2.72;;;;;;;3.93;100.00;101656.72;5200471;28;20079;-80
2023/03/27 01:30:25;;;;;;;14.63;1.80;;;;;;;3.99;100.00;101661.59;5208735;28;20040;-80
2023/03/27 01:33:25;;;;;;;5.95;1.50;;;;;;;3.98;100.00;101659.91;5207719;28;20025;-80
2023/03/27 01:36:54;;;;;;;7.25;1.75;;;;;;;4.02;100.00;101664.91;5207138;28;20029;-81
2023/03/27 01:39:43;;;;;;;9.80;1.88;;;;;;;4.06;100.00;101676.16;5207515;28;20036;-80
2023/03/27 01:42:49;;;;;;;16.00;2.17;;;;;;;4.01;100.00;101680.94;5206712;28;20029;-80
2023/03/27 01:45:38;;;;;;;6.97;1.17;;;;;;;3.88;100.00;101675.59;5206410;28;20351;-80
2023/03/27 01:48:35;;;;;;;11.35;1.40;;;;;;;3.75;100.00;101672.06;5206262;28;20049;-80
2023/03/27 01:51:16;;;;;;;8.50;1.40;;;;;;;3.64;100.00;101673.63;5207250;28;20029;-80
2023/03/27 01:53:55;;;;;;;10.52;1.55;;;;;;;3.64;100.00;101680.72;5207835;28;20029;-80
2023/03/27 01:56:31;;;;;;;8.52;1.60;;;;;;;3.56;100.00;101681.22;5206501;28;20029;-79
2023/03/27 01:59:20;;;;;;;13.57;1.73;;;;;;;3.48;100.00;101686.19;5207104;28;20595;-80
2023/03/27 02:01:57;;;;;;;6.05;1.50;;;;;;;3.48;100.00;101685.34;5206871;28;20029;-80
2023/03/27 02:04:38;;;;;;;8.80;2.60;;;;;;;3.53;100.00;101680.59;5207169;28;20366;-80
2023/03/27 02:07:16;;;;;;;10.63;1.75;;;;;;;3.59;100.00;101685.50;5219672;28;20025;-80
2023/03/27 02:09:52;;;;;;;6.22;1.65;;;;;;;3.61;100.00;101695.06;5204595;28;20021;-79
2023/03/27 02:12:29;;;;;;;11.50;1.48;;;;;;;3.58;100.00;101697.06;5204849;28;20029;-80
2023/03/27 02:15:08;;;;;;;10.95;1.70;;;;;;;3.60;100.00;101689.84;5205081;28;20021;-80
2023/03/27 02:17:47;;;;;;;9.55;3.20;;;;;;;3.59;100.00;101698.75;5204068;28;20020;-80
2023/03/27 02:20:19;;;;;;;16.85;1.85;;;;;;;3.63;100.00;101703.78;5204905;28;20024;-80
2023/03/27 02:22:54;;;;;;;8.40;1.42;;;;;;;3.70;100.00;101703.34;5191919;28;20394;-80
2023/03/27 02:25:28;;;;;;;17.98;2.33;;;;;;;3.71;100.00;101707.72;5204627;28;20037;-80
2023/03/27 02:28:14;;;;;;;7.75;1.48;;;;;;;3.75;100.00;101718.03;5204097;28;20042;-79
2023/03/27 02:31:08;;;;;;;10.27;1.50;;;;;;;3.76;100.00;101726.84;5204595;28;20417;-80
2023/03/27 02:33:45;;;;;;;7.10;1.55;;;;;;;3.78;100.00;101719.66;5204243;28;20033;-80
2023/03/27 02:36:24;;;;;;;12.27;2.63;;;;;;;3.73;100.00;101716.44;5204470;28;20030;-79
2023/03/27 02:39:12;;;;;;;9.73;1.40;;;;;;;3.73;100.00;101719.94;5204268;28;20041;-80
2023/03/27 02:41:56;;;;;;;16.95;2.20;;;;;;;3.75;100.00;101722.47;5203817;28;20022;-80
2023/03/27 02:44:50;;;;;;;20.08;1.90;;;;;;;3.70;100.00;101736.06;5204091;28;20033;-80
2023/03/27 02:47:27;;;;;;;11.88;2.80;;;;;;;3.76;100.00;101738.31;5191693;28;20091;-79
2023/03/27 02:50:04;;;;;;;6.78;1.55;;;;;;;3.84;100.00;101751.94;5203913;28;20036;-80
2023/03/27 02:52:41;;;;;;;11.10;1.98;;;;;;;3.89;100.00;101763.09;5204290;28;20037;-80
2023/03/27 02:55:32;;;;;;;10.95;1.63;;;;;;;3.88;100.00;101737.50;5204234;28;20033;-80
2023/03/27 02:58:08;;;;;;;15.25;2.70;;;;;;;3.92;100.00;101758.56;5203080;28;20025;-81
2023/03/27 03:00:46;;;;;;;5.13;2.40;;;;;;;3.94;100.00;101764.59;5204508;28;20026;-80
2023/03/27 03:03:40;;;;;;;9.32;1.92;;;;;;;3.90;100.00;101764.78;5203828;28;20045;-81
2023/03/27 03:06:13;;;;;;;13.27;2.28;;;;;;;3.88;100.00;101774.69;5204434;28;20022;-80
2023/03/27 03:08:45;;;;;;;15.82;1.60;;;;;;;3.84;100.00;101778.47;5203910;28;20071;-80
2023/03/27 03:11:16;;;;;;;9.35;1.73;;;;;;;3.79;100.00;101788.53;5204140;28;20037;-80
2023/03/27 03:13:46;;;;;;;6.28;1.80;;;;;;;3.78;100.00;101789.50;5203554;28;20072;-80
2023/03/27 03:16:17;;;;;;;7.20;1.58;;;;;;;3.75;100.00;101789.69;5203785;28;20040;-79
2023/03/27 03:18:47;;;;;;;13.38;2.30;;;;;;;3.70;100.00;101775.88;5204051;28;20497;-80
2023/03/27 03:21:18;;;;;;;6.05;1.38;;;;;;;3.69;100.00;101782.13;5203422;28;20068;-80
2023/03/27 03:23:49;;;;;;;15.25;1.75;;;;;;;3.71;100.00;101784.69;5203889;28;20032;-80
2023/03/27 03:26:20;;;;;;;7.65;1.55;;;;;;;3.71;100.00;101789.97;5203512;28;20044;-80
2023/03/27 03:28:50;;;;;;;6.32;1.20;;;;;;;3.71;100.00;101796.13;5203591;28;20049;-80
2023/03/27 03:31:21;;;;;;;7.32;1.15;;;;;;;3.68;100.00;101801.66;5204133;28;20033;-80
2023/03/27 03:33:51;;;;;;;10.52;2.20;;;;;;;3.67;100.00;101802.63;5203576;28;20067;-80
2023/03/27 03:36:22;;;;;;;2.60;1.50;;;;;;;3.61;100.00;101811.81;5203577;28;20083;-79
2023/03/27 03:38:53;;;;;;;6.43;1.45;;;;;;;3.55;100.00;101808.69;5203364;28;20152;-79
2023/03/27 03:41:23;;;;;;;9.30;1.58;;;;;;;3.44;100.00;101819.13;5203239;28;20040;-80
2023/03/27 03:43:54;;;;;;;6.05;1.50;;;;;;;3.35;100.00;101821.41;5202817;28;20127;-79
2023/03/27 03:46:24;;;;;;;12.23;1.70;;;;;;;3.32;100.00;101821.63;5201900;28;20053;-80
2023/03/27 03:48:55;;;;;;;6.35;1.50;;;;;;;3.33;100.00;101823.31;5202302;28;20338;-80
2023/03/27 03:51:27;;;;;;;6.47;1.60;;;;;;;3.28;100.00;101822.75;5201890;28;20064;-80
2023/03/27 03:53:57;;;;;;;5.65;1.65;;;;;;;3.24;100.00;101831.84;5203128;28;20060;-80
2023/03/27 03:56:29;;;;;;;11.95;1.88;;;;;;;3.17;100.00;101827.03;5202475;28;20052;-79
2023/03/27 03:59:00;;;;;;;6.03;1.90;;;;;;;3.08;100.00;101839.03;5206913;28;20025;-79
2023/03/27 04:01:31;;;;;;;5.97;1.40;;;;;;;2.94;100.00;101841.66;5206153;28;20029;-79
2023/03/27 04:04:01;;;;;;;8.63;1.90;;;;;;;2.83;100.00;101844.97;5206985;28;20083;-79
2023/03/27 04:06:36;;;;;;;7.72;1.70;;;;;;;2.71;100.00;101853.63;5206070;28;20051;-79
2023/03/27 04:09:06;;;;;;;4.38;1.60;;;;;;;2.69;100.00;101845.78;5206953;28;20060;-79
2023/03/27 04:11:37;;;;;;;6.53;1.50;;;;;;;2.69;100.00;101853.72;5221720;28;20025;-79
2023/03/27 04:14:07;;;;;;;7.85;1.65;;;;;;;2.68;100.00;101861.78;5206193;28;20033;-80
2023/03/27 04:16:38;;;;;;;7.47;1.88;;;;;;;2.64;100.00;101858.44;5206291;28;20026;-80
2023/03/27 04:19:09;;;;;;;7.15;1.65;;;;;;;2.58;100.00;101859.66;5206406;28;20474;-79
2023/03/27 04:21:41;;;;;;;4.00;1.25;;;;;;;2.51;100.00;101870.69;5206201;28;20041;-79
2023/03/27 04:24:12;;;;;;;9.60;1.60;;;;;;;2.48;100.00;101878.84;5205583;28;20094;-79
2023/03/27 04:26:43;;;;;;;7.22;1.48;;;;;;;2.43;100.00;101879.09;5205633;28;20067;-80
2023/03/27 04:29:13;;;;;;;6.32;1.58;;;;;;;2.40;100.00;101889.00;5206088;28;20045;-79
2023/03/27 04:31:45;;;;;;;4.38;2.25;;;;;;;2.40;100.00;101889.00;5206342;28;20090;-79
2023/03/27 04:34:19;;;;;;;8.00;2.53;;;;;;;2.42;100.00;101895.94;5206022;28;20576;-79
2023/03/27 04:36:50;;;;;;;9.73;1.83;;;;;;;2.33;100.00;101892.03;5205464;28;20390;-79
2023/03/27 04:39:21;;;;;;;3.83;1.50;;;;;;;2.28;100.00;101902.03;5205707;28;20025;-79
2023/03/27 04:41:52;;;;;;;7.40;1.55;;;;;;;2.28;100.00;101903.81;5206291;28;20112;-79
2023/03/27 04:44:23;;;;;;;5.20;1.40;;;;;;;2.30;100.00;101907.22;5206344;28;20040;-80
2023/03/27 04:46:53;;;;;;;4.30;1.50;;;;;;;2.40;100.00;101905.75;5205301;28;20029;-80
2023/03/27 04:49:24;;;;;;;8.57;2.67;;;;;;;2.47;100.00;101917.72;5205888;28;20108;-80
2023/03/27 04:51:55;;;;;;;6.35;1.70;;;;;;;2.58;100.00;101923.25;5205479;28;20036;-83
2023/03/27 04:54:25;;;;;;;7.72;1.88;;;;;;;2.68;100.00;101918.28;5209973;28;20104;-81
2023/03/27 04:56:56;;;;;;;8.60;1.73;;;;;;;2.68;100.00;101912.13;5208716;28;20029;-81
2023/03/27 04:59:30;;;;;;;10.88;2.53;;;;;;;2.81;100.00;101905.16;5208705;28;20044;-81
2023/03/27 05:02:02;;;;;;;7.47;2.10;;;;;;;2.83;100.00;101921.84;5208753;28;20064;-82
2023/03/27 05:04:33;;;;;;;7.18;2.13;;;;;;;2.79;100.00;101921.16;5210218;28;20366;-83
2023/03/27 05:07:03;;;;;;;7.50;1.77;;;;;;;2.79;100.00;101918.50;5205173;28;20064;-80
2023/03/27 05:09:34;;;;;;;4.10;1.80;;;;;;;2.79;100.00;101926.44;5203559;28;20386;-82
2023/03/27 05:12:05;;;;;;;6.47;1.85;;;;;;;2.80;100.00;101925.50;5205009;28;20056;-83
2023/03/27 05:14:35;;;;;;;8.63;2.10;;;;;;;2.88;100.00;101938.31;5204503;28;20024;-83
2023/03/27 05:17:06;;;;;;;6.25;1.77;;;;;;;2.87;100.00;101949.00;5204276;28;20079;-84
2023/03/27 05:19:36;;;;;;;6.55;1.90;;;;;;;2.87;100.00;101949.00;5204813;28;20044;-82
2023/03/27 05:22:07;;;;;;;8.85;1.95;;;;;;;2.84;100.00;101960.63;5191325;28;20026;-81
2023/03/27 05:24:37;;;;;;;9.93;2.47;;;;;;;2.92;100.00;101963.72;5204675;28;20028;-83
2023/03/27 05:27:09;;;;;;;4.88;1.88;;;;;;;2.92;100.00;101976.09;5203969;28;20033;-78
2023/03/27 05:29:39;;;;;;;3.20;1.65;;;;;;;2.94;100.00;101975.06;5204253;28;20029;-78
2023/03/27 05:32:10;;;;;;;6.35;2.17;;;;;;;2.98;100.00;101978.38;5197471;28;20539;-78
2023/03/27 05:34:41;;;;;;;7.75;2.05;;;;;;;3.06;100.00;101977.00;5197167;28;20116;-78
2023/03/27 05:37:11;;;;;;;12.63;2.78;;;;;;;3.12;100.00;101981.09;5201783;28;20528;-78
2023/03/27 05:39:45;;;;;;;8.32;2.60;;;;;;;3.19;100.00;101989.53;5200651;28;20056;-77
2023/03/27 05:42:15;;;;;;;9.13;2.10;;;;;;;3.22;100.00;101987.56;5202342;28;20104;-78
2023/03/27 05:44:46;;;;;;;9.93;2.00;;;;;;;3.28;100.00;102000.44;5202981;28;20460;-78
2023/03/27 05:47:17;;;;;;;8.70;1.58;;;;;;;3.30;100.00;102006.50;5202081;28;20030;-78
2023/03/27 05:49:48;;;;;;;7.38;2.00;;;;;;;3.34;100.00;102002.72;5201931;28;20025;-78
2023/03/27 05:52:18;;;;;;;7.00;1.52;;;;;;;3.34;100.00;102002.72;5202279;28;20037;-78
2023/03/27 05:54:49;;;;;;;8.65;3.30;;;;;;;3.35;100.00;102012.38;5202613;28;20021;-79
2023/03/27 05:57:20;;;;;;;4.47;1.65;;;;;;;3.34;100.00;102010.69;5201916;28;20020;-78
2023/03/27 05:59:50;;;;;;;6.40;2.65;;;;;;;3.33;100.00;102011.63;5202403;28;20037;-78
2023/03/27 06:02:21;;;;;;;9.40;1.67;;;;;;;3.33;100.00;102011.63;5201870;28;20021;-78
2023/03/27 06:04:51;;;;;;;4.85;1.35;;;;;;;3.30;100.00;102016.25;5202467;28;20021;-78
2023/03/27 06:07:22;;;;;;;3.60;1.63;;;;;;;3.24;100.00;102022.78;5201692;28;20029;-78
2023/03/27 06:09:52;;;;;;;5.85;1.88;;;;;;;3.16;100.00;102019.72;5202078;28;20389;-78
2023/03/27 06:12:23;;;;;;;5.32;1.33;;;;;;;3.07;100.00;102037.03;5198380;28;20026;-78
2023/03/27 06:14:54;;;;;;;5.72;1.50;;;;;;;2.95;100.00;102036.88;5202084;28;20078;-78
2023/03/27 06:17:25;;;;;;;8.30;1.98;;;;;;;2.83;100.00;102043.75;5201892;28;20018;-78
2023/03/27 06:19:56;;;;;;;5.80;1.63;;;;;;;2.75;100.00;102046.81;5202841;28;20036;-77
2023/03/27 06:22:27;;;;;;;13.52;2.17;;;;;;;2.67;100.00;102049.06;5202758;28;20029;-83
2023/03/27 06:24:57;;;;;;;5.68;1.65;;;;;;;2.60;100.00;102061.78;5196513;28;20030;-83
2023/03/27 06:27:30;;;;;;;26.23;13.60;;;;;;;2.66;100.00;102055.31;5199982;28;20025;-82
2023/03/27 06:30:01;;;;;;;12.20;4.13;;;;;;;3.11;100.00;102066.88;5203157;28;20048;-76
2023/03/27 06:32:31;;;;;;;10.48;3.00;;;;;;;3.77;100.00;102070.97;5202682;28;20096;-78
2023/03/27 06:35:02;;;;;;;12.15;2.90;;;;;;;4.86;100.00;102071.16;5202719;28;20017;-82
2023/03/27 06:37:35;;;;;;;6.38;2.00;;;;;;;5.53;100.00;102078.31;5202574;28;20516;-78
2023/03/27 06:40:09;;;;;;;4.55;1.65;;;;;;;5.99;100.00;102077.84;5202200;28;20030;-78
2023/03/27 06:42:47;;;;;;;15.00;6.47;;;;;;;6.53;100.00;102082.94;5203113;28;20032;-77
2023/03/27 06:45:18;;;;;;;9.90;1.95;;;;;;;7.49;100.00;102083.81;5202781;28;20489;-78
2023/03/27 06:47:52;;;;;;;4.45;1.80;;;;;;;7.90;100.00;102091.31;5202218;28;20021;-78
2023/03/27 06:50:24;;;;;;;5.10;1.85;;;;;;;7.91;100.00;102094.84;5202022;28;20505;-78
2023/03/27 06:52:55;;;;;;;7.80;1.63;;;;;;;8.03;100.00;102094.75;5202387;28;20421;-78
2023/03/27 06:55:29;;;;;;;3.35;1.40;;;;;;;7.32;100.00;102097.56;5202747;28;20013;-77
2023/03/27 06:58:00;;;;;;;7.07;1.95;;;;;;;6.47;100.00;102079.72;5202738;28;20021;-78
2023/03/27 07:00:34;;;;;;;3.83;1.58;;;;;;;5.86;100.00;102077.81;5202778;28;20041;-78
2023/03/27 07:03:07;;;;;;;7.15;1.65;;;;;;;5.53;100.00;102079.16;5202394;28;20033;-78
2023/03/27 07:05:39;;;;;;;3.40;1.23;;;;;;;5.09;100.00;102084.78;5204338;28;20048;-77
2023/03/27 07:08:15;;;;;;;3.45;1.40;;;;;;;4.77;100.00;102089.50;5201992;28;20033;-78
2023/03/27 07:10:45;;;;;;;5.50;1.33;;;;;;;4.52;100.00;102099.06;5202075;28;20494;-77
2023/03/27 07:13:16;;;;;;;4.05;1.42;;;;;;;4.54;100.00;102099.81;5202204;28;20035;-77
2023/03/27 07:15:46;;;;;;;4.60;2.15;;;;;;;4.97;100.00;102117.47;5202307;28;20030;-77
2023/03/27 07:18:17;;;;;;;6.78;1.48;;;;;;;6.44;100.00;102111.09;5202198;28;20025;-78
2023/03/27 07:20:49;;;;;;;7.47;1.50;;;;;;;7.36;100.00;102110.56;5201906;28;20441;-78
2023/03/27 07:23:19;;;;;;;7.40;1.50;;;;;;;8.59;100.00;102114.50;5203097;28;20045;-77
2023/03/27 07:25:51;;;;;;;7.95;1.27;;;;;;;9.02;100.00;102119.91;5194010;28;20109;-80
2023/03/27 07:28:21;;;;;;;6.70;1.48;;;;;;;9.21;100.00;102117.41;5203595;28;20032;-78
2023/03/27 07:30:52;;;;;;;3.58;0.95;;;;;;;8.98;100.00;102124.63;5219078;28;20125;-78
2023/03/27 07:33:22;;;;;;;1.95;0.90;;;;;;;7.71;100.00;102120.41;5206453;28;20025;-78
2023/03/27 07:35:53;;;;;;;3.90;0.90;;;;;;;6.84;100.00;102140.25;5207013;28;20032;-78
2023/03/27 07:38:24;;;;;;;7.30;1.27;;;;;;;6.45;100.00;102139.44;5206056;28;20159;-77
2023/03/27 07:40:56;;;;;;;7.32;1.30;;;;;;;6.93;100.00;102135.09;5206513;28;20026;-78
2023/03/27 07:43:26;;;;;;;3.28;1.38;;;;;;;7.50;100.00;102133.56;5221430;28;20370;-78
2023/03/27 07:45:57;;;;;;;4.53;1.38;;;;;;;8.08;100.00;102144.31;5205828;28;20029;-78
2023/03/27 07:48:29;;;;;;;6.22;1.13;;;;;;;8.63;100.00;102142.69;5205344;28;20507;-78
2023/03/27 07:50:59;;;;;;;7.10;1.15;;;;;;;8.66;100.00;102156.69;5205976;28;20049;-78
2023/03/27 07:53:30;;;;;;;6.03;1.02;;;;;;;9.06;100.00;102150.81;5206427;28;20091;-78
2023/03/27 07:56:01;;;;;;;9.40;0.88;;;;;;;9.21;100.00;102152.22;5206264;28;20029;-78
2023/03/27 07:58:31;;;;;;;7.47;1.17;;;;;;;9.38;100.00;102158.88;5205559;28;20025;-78
2023/03/27 08:01:03;;;;;;;4.28;1.30;;;;;;;9.48;100.00;102158.97;5205924;28;20059;-78
2023/03/27 08:03:34;;;;;;;4.50;1.08;;;;;;;9.85;100.00;102157.59;5206525;28;20108;-78
2023/03/27 08:06:06;;;;;;;6.05;1.67;;;;;;;9.54;100.00;102163.84;5206032;28;20029;-78
2023/03/27 08:08:37;;;;;;;10.38;1.50;;;;;;;9.45;100.00;102165.44;5206128;28;20052;-78
2023/03/27 08:11:07;;;;;;;6.00;1.50;;;;;;;9.72;100.00;102156.06;5206608;28;20038;-78
2023/03/27 08:13:39;;;;;;;7.00;1.67;;;;;;;9.61;100.00;102159.66;5201517;28;20032;-78
2023/03/27 08:16:13;;;;;;;9.45;1.75;;;;;;;9.47;100.00;102170.66;5205702;28;20508;-78
2023/03/27 08:18:45;;;;;;;6.47;1.63;;;;;;;9.15;100.00;102167.94;5206017;28;20067;-78
2023/03/27 08:21:16;;;;;;;8.18;2.53;;;;;;;9.64;100.00;102163.88;5206052;28;20483;-78
2023/03/27 08:23:46;;;;;;;22.35;11.35;;;;;;;9.71;100.00;102173.13;5208344;28;20071;-78
2023/03/27 08:26:17;;;;;;;8.80;1.85;;;;;;;10.31;100.00;102177.81;5208154;28;20029;-78
2023/03/27 08:28:48;;;;;;;9.02;1.80;;;;;;;10.34;100.00;102180.25;5223609;28;20030;-78
2023/03/27 08:31:19;;;;;;;4.78;1.23;;;;;;;10.46;100.00;102185.53;5207911;28;20025;-78
2023/03/27 08:33:50;;;;;;;9.48;2.20;;;;;;;10.35;100.00;102178.44;5208914;28;20108;-78
2023/03/27 08:36:21;;;;;;;6.38;1.58;;;;;;;9.73;100.00;102174.69;5207931;28;20084;-78
2023/03/27 08:38:54;;;;;;;7.97;2.33;;;;;;;9.18;100.00;102181.91;5207130;28;20397;-78
2023/03/27 08:41:29;;;;;;;5.03;1.98;;;;;;;9.28;100.00;102190.91;5207713;28;20551;-78
2023/03/27 08:44:02;;;;;;;8.60;2.33;;;;;;;8.91;100.00;102178.81;5195937;28;20037;-78
2023/03/27 08:46:39;;;;;;;6.07;2.20;;;;;;;9.04;100.00;102184.88;5208309;28;20393;-78
2023/03/27 08:49:30;;;;;;;12.68;5.65;;;;;;;9.26;100.00;102189.34;5200823;28;20041;-78
2023/03/27 08:52:07;;;;;;;8.68;3.20;;;;;;;9.02;100.00;102190.34;5198769;28;20037;-76
2023/03/27 08:54:38;;;;;;;12.43;2.58;;;;;;;8.50;100.00;102202.53;5207499;28;20079;-79
2023/03/27 08:57:21;;;;;;;6.70;1.90;;;;;;;7.90;100.00;102192.00;5206731;28;20411;-78
2023/03/27 08:59:56;;;;;;;6.82;1.70;;;;;;;7.40;100.00;102201.97;5204769;28;20029;-78
2023/03/27 09:02:42;;;;;;;6.30;2.08;;;;;;;6.96;100.00;102198.88;5207114;28;20315;-79
2023/03/27 09:05:17;;;;;;;17.25;2.33;;;;;;;6.80;100.00;102205.44;5207281;28;20040;-78
2023/03/27 09:08:09;;;;;;;10.32;1.90;;;;;;;6.81;100.00;102209.81;5205065;28;20041;-78
2023/03/27 09:11:00;;;;;;;9.35;2.10;;;;;;;7.49;100.00;102207.50;5206032;28;20409;-78
2023/03/27 09:13:45;;;;;;;6.93;1.50;;;;;;;8.15;100.00;102202.53;5199769;28;20056;-78
2023/03/27 09:16:32;;;;;;;14.37;3.10;;;;;;;7.99;100.00;102204.69;5205825;28;20029;-78
2023/03/27 09:19:10;;;;;;;10.25;1.55;;;;;;;7.67;100.00;102201.75;5206154;28;20033;-77
2023/03/27 09:22:15;;;;;;;13.82;2.17;;;;;;;7.36;100.00;102201.34;5194628;28;20025;-77
2023/03/27 09:24:49;;;;;;;10.27;1.20;;;;;;;6.95;100.00;102215.00;5193749;28;20029;-77
2023/03/27 09:27:24;;;;;;;4.23;1.30;;;;;;;6.74;100.00;102212.91;5204077;28;20465;-77
2023/03/27 09:30:32;;;;;;;3.55;1.10;;;;;;;6.85;100.00;102213.97;5203391;28;20127;-77
2023/03/27 09:33:04;;;;;;;10.90;2.22;;;;;;;7.40;100.00;102215.31;5205803;28;20048;-77
2023/03/27 09:35:37;;;;;;;9.35;2.45;;;;;;;8.35;100.00;102208.19;5205848;28;20047;-78
2023/03/27 09:38:34;;;;;;;11.20;2.05;;;;;;;8.92;100.00;102216.16;5205912;28;20124;-78
2023/03/27 09:41:12;;;;;;;5.93;2.33;;;;;;;9.14;100.00;102217.13;5205292;28;20109;-77
2023/03/27 09:44:04;;;;;;;6.78;1.58;;;;;;;9.19;100.00;102212.25;5205420;28;20082;-77
2023/03/27 09:46:39;;;;;;;8.05;1.90;;;;;;;8.75;100.00;102222.00;5204755;28;20022;-78
2023/03/27 09:49:27;;;;;;;9.35;1.55;;;;;;;8.47;100.00;102217.94;5205256;28;20021;-78
2023/03/27 09:51:58;;;;;;;7.25;1.45;;;;;;;8.62;100.00;102229.28;5204629;28;20041;-78
2023/03/27 09:54:31;;;;;;;12.60;2.42;;;;;;;9.41;100.00;102227.41;5202577;28;20057;-78
2023/03/27 09:57:20;;;;;;;10.48;1.70;;;;;;;10.03;100.00;102229.38;5204669;28;20025;-78
2023/03/27 10:00:25;;;;;;;8.45;1.60;;;;;;;9.47;100.00;102238.47;5219847;28;20029;-79
2023/03/27 10:03:14;;;;;;;7.45;1.40;;;;;;;9.69;100.00;102234.03;5205560;28;20040;-79
2023/03/27 10:05:45;;;;;;;3.92;1.27;;;;;;;9.15;100.00;102253.63;5205547;28;20021;-79
2023/03/27 10:08:38;;;;;;;5.07;1.02;;;;;;;8.27;100.00;102264.91;5204560;28;20025;-79
2023/03/27 10:11:17;;;;;;;2.22;0.85;;;;;;;7.49;100.00;102263.56;5204665;28;20026;-79
2023/03/27 10:13:50;;;;;;;3.60;0.60;;;;;;;6.79;100.00;102275.75;5220109;28;20025;-78
2023/03/27 10:16:21;;;;;;;5.20;0.80;;;;;;;6.97;100.00;102285.13;5204445;28;20482;-77
2023/03/27 10:18:55;;;;;;;5.57;0.93;;;;;;;6.34;100.00;102283.28;5201176;28;20437;-77
2023/03/27 10:21:31;;;;;;;3.90;0.82;;;;;;;6.13;100.00;102282.91;5200840;28;20021;-77
2023/03/27 10:24:05;;;;;;;5.45;0.73;;;;;;;5.94;100.00;102286.78;5201485;28;20108;-76
2023/03/27 10:26:36;;;;;;;5.22;1.23;;;;;;;5.89;100.00;102280.88;5200776;28;20067;-77
2023/03/27 10:29:24;;;;;;;6.65;0.75;;;;;;;5.81;100.00;102285.00;5201442;28;20448;-77
2023/03/27 10:31:58;;;;;;;9.00;0.90;;;;;;;5.69;100.00;102286.66;5202948;28;20029;-79
2023/03/27 10:34:45;;;;;;;5.57;0.82;;;;;;;5.71;100.00;102287.41;5206094;28;20021;-78
2023/03/27 10:37:27;;;;;;;10.02;0.98;;;;;;;5.72;100.00;102289.09;5204849;28;20029;-79
2023/03/27 10:40:08;;;;;;;5.85;0.68;;;;;;;5.73;100.00;102288.19;5205123;28;20021;-79
2023/03/27 10:42:39;;;;;;;4.25;0.70;;;;;;;5.78;100.00;102285.22;5206003;28;20036;-79
2023/03/27 10:45:27;;;;;;;8.38;1.10;;;;;;;6.22;100.00;102269.84;5206828;28;20071;-80
2023/03/27 10:48:00;;;;;;;5.38;1.13;;;;;;;6.89;100.00;102293.69;5207179;28;20029;-80
2023/03/27 10:50:37;;;;;;;6.13;1.35;;;;;;;7.77;100.00;102288.25;5207870;28;20025;-79
2023/03/27 10:53:16;;;;;;;4.15;0.98;;;;;;;8.51;100.00;102281.78;5206244;28;20516;-79
2023/03/27 10:55:53;;;;;;;5.45;1.20;;;;;;;8.99;100.00;102284.28;5221999;28;20106;-80
2023/03/27 10:58:33;;;;;;;9.00;1.10;;;;;;;8.66;100.00;102292.28;5205150;28;20079;-79
2023/03/27 11:01:22;;;;;;;8.82;1.35;;;;;;;8.65;100.00;102287.91;5205983;28;20025;-81
2023/03/27 11:04:10;;;;;;;4.57;1.08;;;;;;;8.43;100.00;102283.31;5203642;28;20049;-80
2023/03/27 11:06:44;;;;;;;6.18;0.98;;;;;;;7.75;100.00;102304.41;5218922;28;20034;-80
2023/03/27 11:09:22;;;;;;;7.47;1.17;;;;;;;7.18;100.00;102312.13;5206344;28;20022;-80
2023/03/27 11:12:00;;;;;;;8.30;1.08;;;;;;;6.45;100.00;102312.72;5206031;28;20029;-80
2023/03/27 11:14:50;;;;;;;4.40;0.93;;;;;;;6.14;100.00;102319.25;5204214;28;20444;-80
2023/03/27 11:17:28;;;;;;;7.38;1.00;;;;;;;5.95;100.00;102323.13;5205881;28;20022;-80
2023/03/27 11:20:05;;;;;;;10.90;1.38;;;;;;;6.05;100.00;102317.19;5207210;28;20393;-79
2023/03/27 11:22:44;;;;;;;6.10;1.00;;;;;;;6.52;100.00;102326.50;5207122;28;20100;-79
2023/03/27 11:25:25;;;;;;;15.18;1.17;;;;;;;7.15;100.00;102329.19;5197991;28;20412;-78
2023/03/27 11:28:07;;;;;;;6.57;1.13;;;;;;;7.59;100.00;102335.88;5194989;28;20021;-79
2023/03/27 11:30:57;;;;;;;6.00;0.98;;;;;;;7.87;100.00;102333.84;5222648;28;20092;-80
2023/03/27 11:33:37;;;;;;;5.00;1.13;;;;;;;8.33;100.00;102341.97;5207520;28;20095;-79
2023/03/27 11:36:33;;;;;;;8.77;1.10;;;;;;;8.50;100.00;102335.41;5207258;28;20033;-78
2023/03/27 11:39:23;;;;;;;5.93;1.58;;;;;;;8.88;100.00;102336.94;5206477;28;20029;-77
2023/03/27 11:41:57;;;;;;;7.55;1.23;;;;;;;9.28;100.00;102340.88;5206205;28;20485;-78
2023/03/27 11:44:29;;;;;;;5.18;1.13;;;;;;;9.79;100.00;102335.00;5206341;28;20405;-78
2023/03/27 11:47:18;;;;;;;5.45;0.95;;;;;;;10.44;100.00;102333.25;5205158;28;20112;-77
2023/03/27 11:50:07;;;;;;;5.90;1.10;;;;;;;10.92;100.00;102337.22;5206277;28;20401;-77
2023/03/27 11:53:15;;;;;;;6.97;1.02;;;;;;;10.66;100.00;102334.09;5208914;28;20044;-78
2023/03/27 11:56:07;;;;;;;5.10;1.00;;;;;;;9.85;100.00;102336.34;5209524;28;20060;-79
2023/03/27 11:58:58;;;;;;;5.95;0.80;;;;;;;9.33;100.00;102344.03;5209397;28;20064;-79
2023/03/27 12:01:53;;;;;;;4.43;0.73;;;;;;;9.09;100.00;102329.94;5209931;28;20051;-78
2023/03/27 12:04:51;;;;;;;6.35;0.90;;;;;;;8.95;100.00;102344.41;5208831;28;20045;-78